Paris, TX

4:36 AM CST on February 23, 2017 (GMT -0600)
Cox

Weather History for KPRX - March, 2013

Change the Weather History Date:

Thursday, March 14, 2013

  Actual Average Record
Temperature  
Mean Temperature 55 °F -  
Max Temperature 75 °F 61 °F 84 °F (2016)
Min Temperature 37 °F 42 °F 33 °F (2005)
Degree Days  
Heating Degree Days 10    
Growing Degree Days 5 (Base 50)    
Moisture  
Dew Point 37 °F    
Average Humidity 50    
Maximum Humidity 75    
Minimum Humidity 31    
Precipitation  
Precipitation 0.00 in - - ()
Sea Level Pressure  
Sea Level Pressure 30.30 in    
Wind  
Wind Speed 10 mph (South)    
Max Wind Speed 23 mph    
Max Gust Speed 28 mph    
Visibility 10 miles    
Events      
Averages and records for this station are not official NWS values.
T = Trace of Precipitation, MM = Missing Value Source: NWS Daily Summary

Daily Weather History Graph

Daily Weather History Graph

Search for Another Location

Airport or City:

Trip Planner

Search our weather history database for the weather conditions in past years. The results will help you decide how hot, cold, wet, or windy it might be!

Date:

Astronomy

Mar. 14, 2013 Rise Set
Actual Time 7:33 AM CDT 7:29 PM CDT
Civil Twilight 7:08 AM CDT 7:53 PM CDT
Nautical Twilight 6:39 AM CDT 8:22 PM CDT
Astronomical Twilight 6:10 AM CDT 8:51 PM CDT
Moon 8:57 AM CDT (3/14) 10:34 PM CDT (3/14)
Length of Visible Light 12h 45m
Length of Day
11h 55m
Waxing Crescent, 9% of the Moon is Illuminated
Mar 14
Waxing Crescent
Mar 19
First Quarter
Mar 27
Full
Apr 2
Last Quarter
Apr 10
New

Hourly Weather History & Observations

Time (CDT) Temp. Windchill Dew Point Humidity Pressure Visibility Wind Dir Wind Speed Gust Speed Precip Events Conditions
12:15 AM 48.2 °F - 30.2 °F 50% 30.38 in 10.0 mi ESE 8.1 mph - N/A   Clear
12:35 AM 46.4 °F 42.4 °F 30.2 °F 53% 30.38 in 10.0 mi East 8.1 mph - N/A   Clear
12:55 AM 46.4 °F 42.4 °F 30.2 °F 53% 30.38 in 10.0 mi East 8.1 mph - N/A   Clear
1:15 AM 44.6 °F 40.2 °F 30.2 °F 57% 30.37 in 10.0 mi ESE 8.1 mph - N/A   Clear
1:35 AM 44.6 °F 40.2 °F 30.2 °F 57% 30.37 in 10.0 mi East 8.1 mph - N/A   Clear
1:55 AM 42.8 °F 38.6 °F 30.2 °F 61% 30.37 in 10.0 mi East 6.9 mph - N/A   Clear
2:15 AM 44.6 °F 40.7 °F 30.2 °F 57% 30.37 in 10.0 mi ESE 6.9 mph - N/A   Clear
2:35 AM 44.6 °F 40.2 °F 30.2 °F 57% 30.37 in 10.0 mi ESE 8.1 mph - N/A   Clear
2:55 AM 44.6 °F 40.2 °F 30.2 °F 57% 30.36 in 10.0 mi ESE 8.1 mph - N/A   Clear
3:15 AM 42.8 °F 38.6 °F 30.2 °F 61% 30.36 in 10.0 mi ESE 6.9 mph - N/A   Clear
3:35 AM 42.8 °F 38.6 °F 30.2 °F 61% 30.36 in 10.0 mi SE 6.9 mph - N/A   Clear
3:55 AM 42.8 °F 38.6 °F 28.4 °F 57% 30.35 in 10.0 mi SE 6.9 mph - N/A   Clear
4:15 AM 42.8 °F 38.6 °F 28.4 °F 57% 30.34 in 10.0 mi SE 6.9 mph - N/A   Clear
4:35 AM 41.0 °F 36.4 °F 30.2 °F 65% 30.34 in 10.0 mi SE 6.9 mph - N/A   Clear
4:55 AM 41.0 °F 36.4 °F 30.2 °F 65% 30.34 in 10.0 mi SE 6.9 mph - N/A   Clear
5:15 AM 39.2 °F 34.2 °F 30.2 °F 70% 30.34 in 10.0 mi SE 6.9 mph - N/A   Clear
5:35 AM 39.2 °F 33.6 °F 28.4 °F 65% 30.34 in 10.0 mi SE 8.1 mph - N/A   Clear
5:55 AM 39.2 °F 33.6 °F 30.2 °F 70% 30.35 in 10.0 mi ESE 8.1 mph - N/A   Clear
6:15 AM 39.2 °F 34.2 °F 30.2 °F 70% 30.35 in 10.0 mi SE 6.9 mph - N/A   Clear
6:35 AM 39.2 °F 34.2 °F 28.4 °F 65% 30.35 in 10.0 mi ESE 6.9 mph - N/A   Clear
6:55 AM 39.2 °F 35.9 °F 28.4 °F 65% 30.36 in 10.0 mi ESE 4.6 mph - N/A   Clear
7:15 AM 39.2 °F 34.2 °F 28.4 °F 65% 30.36 in 10.0 mi ESE 6.9 mph - N/A   Clear
7:35 AM 39.2 °F 35.0 °F 30.2 °F 70% 30.36 in 10.0 mi SE 5.8 mph - N/A   Clear
7:55 AM 37.4 °F 31.4 °F 30.2 °F 75% 30.36 in 10.0 mi ESE 8.1 mph - N/A   Clear
8:15 AM 41.0 °F 35.2 °F 30.2 °F 65% 30.37 in 10.0 mi ESE 9.2 mph - N/A   Clear
8:35 AM 44.6 °F 40.7 °F 32.0 °F 61% 30.37 in 10.0 mi SE 6.9 mph - N/A   Clear
8:55 AM 46.4 °F 42.9 °F 33.8 °F 62% 30.38 in 10.0 mi SE 6.9 mph - N/A   Clear
9:15 AM 50.0 °F - 33.8 °F 54% 30.38 in 10.0 mi SSE 9.2 mph - N/A   Clear
9:35 AM 53.6 °F - 35.6 °F 51% 30.38 in 10.0 mi South 11.5 mph - N/A   Clear
9:55 AM 53.6 °F - 35.6 °F 51% 30.38 in 10.0 mi South 6.9 mph - N/A   Clear
10:15 AM 57.2 °F - 35.6 °F 44% 30.38 in 10.0 mi SSW 6.9 mph - N/A   Clear
10:35 AM 59.0 °F - 37.4 °F 45% 30.38 in 10.0 mi South 8.1 mph - N/A   Clear
10:55 AM 60.8 °F - 37.4 °F 42% 30.38 in 10.0 mi SSW 11.5 mph - N/A   Clear
11:15 AM 62.6 °F - 35.6 °F 37% 30.37 in 10.0 mi SSW 15.0 mph 20.7 mph N/A   Clear
11:35 AM 64.4 °F - 37.4 °F 37% 30.36 in 10.0 mi SSW 13.8 mph - N/A   Clear
11:55 AM 66.2 °F - 37.4 °F 35% 30.36 in 10.0 mi SW 17.3 mph 20.7 mph N/A   Clear
12:15 PM 66.2 °F - 37.4 °F 35% 30.35 in 10.0 mi SSW 20.7 mph 27.6 mph N/A   Clear
12:35 PM 68.0 °F - 39.2 °F 35% 30.34 in 10.0 mi SSW 20.7 mph 26.5 mph N/A   Clear
12:55 PM 69.8 °F - 37.4 °F 31% 30.33 in 10.0 mi SW 18.4 mph 23.0 mph N/A   Clear
1:15 PM 69.8 °F - 39.2 °F 33% 30.33 in 10.0 mi SSW 23.0 mph 27.6 mph N/A   Clear
1:35 PM 69.8 °F - 39.2 °F 33% 30.32 in 10.0 mi SSW 16.1 mph 25.3 mph N/A   Clear
1:55 PM 69.8 °F - 39.2 °F 33% 30.31 in 10.0 mi SSW 20.7 mph 24.2 mph N/A   Clear
2:15 PM 71.6 °F - 41.0 °F 33% 30.29 in 10.0 mi SSW 17.3 mph 23.0 mph N/A   Clear
2:35 PM 71.6 °F - 41.0 °F 33% 30.28 in 10.0 mi SW 15.0 mph 21.9 mph N/A   Clear
2:55 PM 71.6 °F - 42.8 °F 35% 30.27 in 10.0 mi SSW 18.4 mph - N/A   Clear
3:15 PM 73.4 °F - 42.8 °F 33% 30.26 in 10.0 mi SSW 15.0 mph 20.7 mph N/A   Clear
3:35 PM 73.4 °F - 42.8 °F 33% 30.25 in 10.0 mi SSW 15.0 mph 23.0 mph N/A   Clear
3:55 PM 73.4 °F - 42.8 °F 33% 30.25 in 10.0 mi SW 15.0 mph 20.7 mph N/A   Clear
4:15 PM 73.4 °F - 42.8 °F 33% 30.25 in 10.0 mi SSW 16.1 mph 21.9 mph N/A   Clear
4:35 PM 73.4 °F - 42.8 °F 33% 30.24 in 10.0 mi SSW 13.8 mph 20.7 mph N/A   Clear
4:55 PM 73.4 °F - 42.8 °F 33% 30.24 in 10.0 mi SSW 15.0 mph - N/A   Clear
5:15 PM 73.4 °F - 42.8 °F 33% 30.23 in 10.0 mi SSW 15.0 mph - N/A   Clear
5:35 PM 73.4 °F - 42.8 °F 33% 30.22 in 10.0 mi SSW 15.0 mph 19.6 mph N/A   Clear
5:55 PM 73.4 °F - 44.6 °F 36% 30.22 in 10.0 mi SSW 15.0 mph 18.4 mph N/A   Clear
6:15 PM 73.4 °F - 44.6 °F 36% 30.22 in 10.0 mi SSW 9.2 mph - N/A   Clear
6:35 PM 71.6 °F - 42.8 °F 35% 30.21 in 10.0 mi SSW 11.5 mph - N/A   Clear
6:55 PM 69.8 °F - 42.8 °F 38% 30.21 in 10.0 mi SSW 9.2 mph - N/A   Clear
7:15 PM 69.8 °F - 42.8 °F 38% 30.21 in 10.0 mi SSW 10.4 mph - N/A   Clear
7:35 PM 64.4 °F - 42.8 °F 45% 30.21 in 10.0 mi SSW 9.2 mph - N/A   Clear
7:55 PM 62.6 °F - 42.8 °F 48% 30.21 in 10.0 mi SSW 6.9 mph - N/A   Clear
8:15 PM 60.8 °F - 42.8 °F 52% 30.21 in 10.0 mi SSW 8.1 mph - N/A   Clear
8:35 PM 60.8 °F - 42.8 °F 52% 30.20 in 10.0 mi SSW 9.2 mph - N/A   Clear
8:55 PM 60.8 °F - 42.8 °F 52% 30.21 in 10.0 mi SSW 9.2 mph - N/A   Clear
9:15 PM 60.8 °F - 42.8 °F 52% 30.21 in 10.0 mi SSW 10.4 mph - N/A   Clear
9:35 PM 59.0 °F - 42.8 °F 55% 30.21 in 10.0 mi SSW 8.1 mph - N/A   Clear
9:55 PM 59.0 °F - 42.8 °F 55% 30.22 in 10.0 mi SSW 8.1 mph - N/A   Clear
10:15 PM 59.0 °F - 44.6 °F 59% 30.20 in 10.0 mi SSW 11.5 mph - N/A   Clear
10:35 PM 60.8 °F - 42.8 °F 52% 30.20 in 10.0 mi SSW 10.4 mph - N/A   Clear
10:55 PM 59.0 °F - 42.8 °F 55% 30.20 in 10.0 mi SSW 10.4 mph - N/A   Clear
11:15 PM 59.0 °F - 42.8 °F 55% 30.20 in 10.0 mi SSW 9.2 mph - N/A   Clear
11:35 PM 57.2 °F - 42.8 °F 59% 30.20 in 10.0 mi SSW 8.1 mph - N/A   Clear
11:55 PM 57.2 °F - 42.8 °F 59% 30.20 in 10.0 mi SSW 8.1 mph - N/A   Clear